sensor_id;sensor_type;location;lat;lon;timestamp;P1;durP1;ratioP1;P2;durP2;ratioP2
9960;SDS011;5021;51.506;11.320;2022-09-09T00:04:30;6.20;;;5.13;;
9960;SDS011;5021;51.506;11.320;2022-09-09T00:09:24;8.90;;;5.87;;
9960;SDS011;5021;51.506;11.320;2022-09-09T00:11:52;6.57;;;5.83;;
9960;SDS011;5021;51.506;11.320;2022-09-09T00:14:39;8.00;;;6.10;;
9960;SDS011;5021;51.506;11.320;2022-09-09T00:17:08;5.70;;;5.10;;
9960;SDS011;5021;51.506;11.320;2022-09-09T00:19:40;6.53;;;5.93;;
9960;SDS011;5021;51.506;11.320;2022-09-09T00:22:20;5.73;;;5.23;;
9960;SDS011;5021;51.506;11.320;2022-09-09T00:24:51;8.80;;;5.50;;
9960;SDS011;5021;51.506;11.320;2022-09-09T00:27:25;5.87;;;5.23;;
9960;SDS011;5021;51.506;11.320;2022-09-09T00:29:58;5.40;;;4.90;;
9960;SDS011;5021;51.506;11.320;2022-09-09T00:32:27;5.77;;;4.97;;
9960;SDS011;5021;51.506;11.320;2022-09-09T00:34:55;5.70;;;4.40;;
9960;SDS011;5021;51.506;11.320;2022-09-09T00:37:22;4.20;;;3.80;;
9960;SDS011;5021;51.506;11.320;2022-09-09T00:39:50;5.80;;;5.03;;
9960;SDS011;5021;51.506;11.320;2022-09-09T00:42:41;4.77;;;4.00;;
9960;SDS011;5021;51.506;11.320;2022-09-09T00:47:52;4.93;;;4.53;;
9960;SDS011;5021;51.506;11.320;2022-09-09T00:58:24;5.20;;;4.70;;
9960;SDS011;5021;51.506;11.320;2022-09-09T01:00:54;5.03;;;4.53;;
9960;SDS011;5021;51.506;11.320;2022-09-09T01:06:02;6.03;;;5.23;;
9960;SDS011;5021;51.506;11.320;2022-09-09T01:08:41;5.70;;;4.67;;
9960;SDS011;5021;51.506;11.320;2022-09-09T01:11:15;5.80;;;4.47;;
9960;SDS011;5021;51.506;11.320;2022-09-09T01:13:45;6.27;;;4.30;;
9960;SDS011;5021;51.506;11.320;2022-09-09T01:16:12;7.23;;;5.33;;
9960;SDS011;5021;51.506;11.320;2022-09-09T01:18:40;5.97;;;4.70;;
9960;SDS011;5021;51.506;11.320;2022-09-09T01:21:12;4.87;;;4.40;;
9960;SDS011;5021;51.506;11.320;2022-09-09T01:26:12;5.90;;;4.83;;
9960;SDS011;5021;51.506;11.320;2022-09-09T01:28:39;8.40;;;4.53;;
9960;SDS011;5021;51.506;11.320;2022-09-09T01:31:06;7.23;;;4.30;;
9960;SDS011;5021;51.506;11.320;2022-09-09T01:33:33;6.03;;;4.13;;
9960;SDS011;5021;51.506;11.320;2022-09-09T01:36:00;6.27;;;4.33;;
9960;SDS011;5021;51.506;11.320;2022-09-09T01:38:28;5.17;;;4.50;;
9960;SDS011;5021;51.506;11.320;2022-09-09T01:40:55;4.30;;;3.90;;
9960;SDS011;5021;51.506;11.320;2022-09-09T01:43:21;4.60;;;3.73;;
9960;SDS011;5021;51.506;11.320;2022-09-09T01:45:48;3.90;;;3.57;;
9960;SDS011;5021;51.506;11.320;2022-09-09T01:48:15;6.77;;;3.63;;
9960;SDS011;5021;51.506;11.320;2022-09-09T01:50:42;5.23;;;3.53;;
9960;SDS011;5021;51.506;11.320;2022-09-09T01:53:08;5.23;;;3.67;;
9960;SDS011;5021;51.506;11.320;2022-09-09T01:55:38;4.50;;;3.60;;
9960;SDS011;5021;51.506;11.320;2022-09-09T01:58:14;3.30;;;3.00;;
9960;SDS011;5021;51.506;11.320;2022-09-09T02:00:44;4.17;;;3.23;;
9960;SDS011;5021;51.506;11.320;2022-09-09T02:03:24;3.60;;;3.30;;
9960;SDS011;5021;51.506;11.320;2022-09-09T02:08:20;4.07;;;3.20;;
9960;SDS011;5021;51.506;11.320;2022-09-09T02:13:17;5.17;;;3.20;;
9960;SDS011;5021;51.506;11.320;2022-09-09T02:15:52;5.07;;;3.33;;
9960;SDS011;5021;51.506;11.320;2022-09-09T02:18:20;5.50;;;3.50;;
9960;SDS011;5021;51.506;11.320;2022-09-09T02:20:49;4.17;;;3.13;;
9960;SDS011;5021;51.506;11.320;2022-09-09T02:23:16;4.77;;;2.90;;
9960;SDS011;5021;51.506;11.320;2022-09-09T02:25:43;4.23;;;3.20;;
9960;SDS011;5021;51.506;11.320;2022-09-09T02:28:11;4.23;;;2.63;;
9960;SDS011;5021;51.506;11.320;2022-09-09T02:30:39;4.30;;;2.97;;
9960;SDS011;5021;51.506;11.320;2022-09-09T02:33:06;4.83;;;3.10;;
9960;SDS011;5021;51.506;11.320;2022-09-09T02:35:32;4.67;;;3.33;;
9960;SDS011;5021;51.506;11.320;2022-09-09T02:38:03;3.80;;;2.70;;
9960;SDS011;5021;51.506;11.320;2022-09-09T02:40:29;4.50;;;3.07;;
9960;SDS011;5021;51.506;11.320;2022-09-09T02:42:55;5.67;;;2.80;;
9960;SDS011;5021;51.506;11.320;2022-09-09T02:45:23;6.53;;;3.53;;
9960;SDS011;5021;51.506;11.320;2022-09-09T02:47:56;3.17;;;2.83;;
9960;SDS011;5021;51.506;11.320;2022-09-09T02:50:25;4.13;;;3.10;;
9960;SDS011;5021;51.506;11.320;2022-09-09T02:55:41;4.57;;;3.20;;
9960;SDS011;5021;51.506;11.320;2022-09-09T02:58:09;5.00;;;3.33;;
9960;SDS011;5021;51.506;11.320;2022-09-09T03:00:36;5.57;;;3.67;;
9960;SDS011;5021;51.506;11.320;2022-09-09T03:03:03;4.70;;;3.77;;
9960;SDS011;5021;51.506;11.320;2022-09-09T03:05:29;3.30;;;3.00;;
9960;SDS011;5021;51.506;11.320;2022-09-09T03:07:55;5.30;;;3.30;;
9960;SDS011;5021;51.506;11.320;2022-09-09T03:10:21;7.20;;;3.40;;
9960;SDS011;5021;51.506;11.320;2022-09-09T03:12:47;5.20;;;3.67;;
9960;SDS011;5021;51.506;11.320;2022-09-09T03:15:13;3.70;;;3.23;;
9960;SDS011;5021;51.506;11.320;2022-09-09T03:17:40;3.63;;;3.20;;
9960;SDS011;5021;51.506;11.320;2022-09-09T03:20:06;4.43;;;3.50;;
9960;SDS011;5021;51.506;11.320;2022-09-09T03:22:33;3.40;;;3.07;;
9960;SDS011;5021;51.506;11.320;2022-09-09T03:24:59;3.53;;;3.13;;
9960;SDS011;5021;51.506;11.320;2022-09-09T03:27:25;5.20;;;3.40;;
9960;SDS011;5021;51.506;11.320;2022-09-09T03:29:51;3.20;;;2.90;;
9960;SDS011;5021;51.506;11.320;2022-09-09T03:32:18;5.17;;;3.23;;
9960;SDS011;5021;51.506;11.320;2022-09-09T03:34:47;3.93;;;2.90;;
9960;SDS011;5021;51.506;11.320;2022-09-09T03:37:14;4.83;;;2.90;;
9960;SDS011;5021;51.506;11.320;2022-09-09T03:39:40;3.17;;;2.70;;
9960;SDS011;5021;51.506;11.320;2022-09-09T03:42:06;4.23;;;2.90;;
9960;SDS011;5021;51.506;11.320;2022-09-09T03:44:32;4.87;;;2.80;;
9960;SDS011;5021;51.506;11.320;2022-09-09T03:46:58;2.93;;;2.40;;
9960;SDS011;5021;51.506;11.320;2022-09-09T03:49:25;3.93;;;2.83;;
9960;SDS011;5021;51.506;11.320;2022-09-09T03:51:53;4.67;;;2.80;;
9960;SDS011;5021;51.506;11.320;2022-09-09T03:54:19;3.90;;;3.00;;
9960;SDS011;5021;51.506;11.320;2022-09-09T03:56:45;3.97;;;3.47;;
9960;SDS011;5021;51.506;11.320;2022-09-09T03:59:11;3.87;;;2.77;;
9960;SDS011;5021;51.506;11.320;2022-09-09T04:01:39;4.30;;;2.50;;
9960;SDS011;5021;51.506;11.320;2022-09-09T04:04:05;7.93;;;2.90;;
9960;SDS011;5021;51.506;11.320;2022-09-09T04:06:31;2.93;;;2.27;;
9960;SDS011;5021;51.506;11.320;2022-09-09T04:08:57;4.50;;;2.50;;
9960;SDS011;5021;51.506;11.320;2022-09-09T04:11:23;2.57;;;2.37;;
9960;SDS011;5021;51.506;11.320;2022-09-09T04:13:49;3.33;;;2.97;;
9960;SDS011;5021;51.506;11.320;2022-09-09T04:16:15;3.30;;;3.00;;
9960;SDS011;5021;51.506;11.320;2022-09-09T04:18:41;4.40;;;2.47;;
9960;SDS011;5021;51.506;11.320;2022-09-09T04:21:08;4.20;;;2.60;;
9960;SDS011;5021;51.506;11.320;2022-09-09T04:23:35;3.70;;;2.40;;
9960;SDS011;5021;51.506;11.320;2022-09-09T04:26:01;2.90;;;2.50;;
9960;SDS011;5021;51.506;11.320;2022-09-09T04:28:28;3.57;;;2.70;;
9960;SDS011;5021;51.506;11.320;2022-09-09T04:30:55;3.50;;;2.70;;
9960;SDS011;5021;51.506;11.320;2022-09-09T04:33:23;4.17;;;2.60;;
9960;SDS011;5021;51.506;11.320;2022-09-09T04:35:51;6.03;;;2.93;;
9960;SDS011;5021;51.506;11.320;2022-09-09T04:38:20;3.20;;;2.73;;
9960;SDS011;5021;51.506;11.320;2022-09-09T04:40:48;3.40;;;2.53;;
9960;SDS011;5021;51.506;11.320;2022-09-09T04:43:14;4.23;;;2.60;;
9960;SDS011;5021;51.506;11.320;2022-09-09T04:45:43;3.17;;;2.20;;
9960;SDS011;5021;51.506;11.320;2022-09-09T04:48:10;3.70;;;2.50;;
9960;SDS011;5021;51.506;11.320;2022-09-09T04:50:36;3.57;;;2.40;;
9960;SDS011;5021;51.506;11.320;2022-09-09T04:53:03;3.80;;;2.40;;
9960;SDS011;5021;51.506;11.320;2022-09-09T04:55:29;2.27;;;2.07;;
9960;SDS011;5021;51.506;11.320;2022-09-09T04:57:56;2.50;;;2.30;;
9960;SDS011;5021;51.506;11.320;2022-09-09T05:00:22;4.03;;;2.43;;
9960;SDS011;5021;51.506;11.320;2022-09-09T05:02:48;3.17;;;2.47;;
9960;SDS011;5021;51.506;11.320;2022-09-09T05:05:14;4.73;;;2.90;;
9960;SDS011;5021;51.506;11.320;2022-09-09T05:07:41;4.20;;;2.60;;
9960;SDS011;5021;51.506;11.320;2022-09-09T05:10:08;2.53;;;2.33;;
9960;SDS011;5021;51.506;11.320;2022-09-09T05:12:35;5.73;;;2.60;;
9960;SDS011;5021;51.506;11.320;2022-09-09T05:15:01;3.43;;;2.40;;
9960;SDS011;5021;51.506;11.320;2022-09-09T05:17:27;3.13;;;2.40;;
9960;SDS011;5021;51.506;11.320;2022-09-09T05:19:53;4.30;;;2.53;;
9960;SDS011;5021;51.506;11.320;2022-09-09T05:22:20;3.97;;;2.70;;
9960;SDS011;5021;51.506;11.320;2022-09-09T05:24:47;4.47;;;2.63;;
9960;SDS011;5021;51.506;11.320;2022-09-09T05:27:15;2.80;;;2.40;;
9960;SDS011;5021;51.506;11.320;2022-09-09T05:29:41;3.90;;;2.33;;
9960;SDS011;5021;51.506;11.320;2022-09-09T05:32:09;4.73;;;2.47;;
9960;SDS011;5021;51.506;11.320;2022-09-09T05:34:35;4.60;;;2.77;;
9960;SDS011;5021;51.506;11.320;2022-09-09T05:37:02;4.23;;;2.60;;
9960;SDS011;5021;51.506;11.320;2022-09-09T05:39:29;3.53;;;2.60;;
9960;SDS011;5021;51.506;11.320;2022-09-09T05:41:55;3.20;;;2.40;;
9960;SDS011;5021;51.506;11.320;2022-09-09T05:44:21;3.20;;;2.50;;
9960;SDS011;5021;51.506;11.320;2022-09-09T05:46:52;3.47;;;2.30;;
9960;SDS011;5021;51.506;11.320;2022-09-09T05:49:19;3.93;;;2.50;;
9960;SDS011;5021;51.506;11.320;2022-09-09T05:51:46;3.87;;;2.63;;
9960;SDS011;5021;51.506;11.320;2022-09-09T05:54:13;5.17;;;2.40;;
9960;SDS011;5021;51.506;11.320;2022-09-09T05:56:40;2.30;;;2.10;;
9960;SDS011;5021;51.506;11.320;2022-09-09T05:59:06;2.87;;;2.20;;
9960;SDS011;5021;51.506;11.320;2022-09-09T06:01:34;2.40;;;2.20;;
9960;SDS011;5021;51.506;11.320;2022-09-09T06:04:00;4.27;;;2.20;;
9960;SDS011;5021;51.506;11.320;2022-09-09T06:06:27;3.13;;;2.70;;
9960;SDS011;5021;51.506;11.320;2022-09-09T06:08:54;2.50;;;2.30;;
9960;SDS011;5021;51.506;11.320;2022-09-09T06:11:23;4.50;;;2.70;;
9960;SDS011;5021;51.506;11.320;2022-09-09T06:13:50;3.17;;;2.60;;
9960;SDS011;5021;51.506;11.320;2022-09-09T06:16:19;2.70;;;2.50;;
9960;SDS011;5021;51.506;11.320;2022-09-09T06:18:47;5.50;;;3.03;;
9960;SDS011;5021;51.506;11.320;2022-09-09T06:21:17;9.20;;;3.10;;
9960;SDS011;5021;51.506;11.320;2022-09-09T06:23:44;5.50;;;3.60;;
9960;SDS011;5021;51.506;11.320;2022-09-09T06:26:11;4.00;;;3.10;;
9960;SDS011;5021;51.506;11.320;2022-09-09T06:28:37;6.33;;;3.33;;
9960;SDS011;5021;51.506;11.320;2022-09-09T06:31:05;3.20;;;2.90;;
9960;SDS011;5021;51.506;11.320;2022-09-09T06:33:31;4.67;;;2.90;;
9960;SDS011;5021;51.506;11.320;2022-09-09T06:36:00;5.20;;;2.80;;
9960;SDS011;5021;51.506;11.320;2022-09-09T06:38:26;3.50;;;3.20;;
9960;SDS011;5021;51.506;11.320;2022-09-09T06:40:58;4.43;;;2.73;;
9960;SDS011;5021;51.506;11.320;2022-09-09T06:43:25;3.20;;;2.73;;
9960;SDS011;5021;51.506;11.320;2022-09-09T06:46:00;4.10;;;3.10;;
9960;SDS011;5021;51.506;11.320;2022-09-09T06:48:26;8.30;;;2.73;;
9960;SDS011;5021;51.506;11.320;2022-09-09T06:53:31;3.50;;;2.77;;
9960;SDS011;5021;51.506;11.320;2022-09-09T06:56:01;4.70;;;2.57;;
9960;SDS011;5021;51.506;11.320;2022-09-09T06:58:27;5.63;;;2.60;;
9960;SDS011;5021;51.506;11.320;2022-09-09T07:01:01;3.37;;;2.60;;
9960;SDS011;5021;51.506;11.320;2022-09-09T07:03:27;4.13;;;2.57;;
9960;SDS011;5021;51.506;11.320;2022-09-09T07:05:53;2.80;;;2.53;;
9960;SDS011;5021;51.506;11.320;2022-09-09T07:08:21;3.47;;;2.70;;
9960;SDS011;5021;51.506;11.320;2022-09-09T07:10:47;4.13;;;2.30;;
9960;SDS011;5021;51.506;11.320;2022-09-09T07:13:13;4.43;;;2.60;;
9960;SDS011;5021;51.506;11.320;2022-09-09T07:15:40;5.40;;;2.53;;
9960;SDS011;5021;51.506;11.320;2022-09-09T07:18:06;5.40;;;2.80;;
9960;SDS011;5021;51.506;11.320;2022-09-09T07:20:32;3.27;;;2.37;;
9960;SDS011;5021;51.506;11.320;2022-09-09T07:22:58;4.23;;;2.37;;
9960;SDS011;5021;51.506;11.320;2022-09-09T07:25:24;3.57;;;2.00;;
9960;SDS011;5021;51.506;11.320;2022-09-09T07:27:55;3.53;;;2.33;;
9960;SDS011;5021;51.506;11.320;2022-09-09T07:30:21;3.50;;;2.10;;
9960;SDS011;5021;51.506;11.320;2022-09-09T07:32:47;3.70;;;2.30;;
9960;SDS011;5021;51.506;11.320;2022-09-09T07:35:13;3.50;;;1.93;;
9960;SDS011;5021;51.506;11.320;2022-09-09T07:37:39;3.43;;;2.00;;
9960;SDS011;5021;51.506;11.320;2022-09-09T07:40:06;2.17;;;1.70;;
9960;SDS011;5021;51.506;11.320;2022-09-09T07:42:32;3.23;;;1.70;;
9960;SDS011;5021;51.506;11.320;2022-09-09T07:44:58;3.37;;;1.77;;
9960;SDS011;5021;51.506;11.320;2022-09-09T07:47:24;3.87;;;1.63;;
9960;SDS011;5021;51.506;11.320;2022-09-09T07:49:50;3.20;;;1.80;;
9960;SDS011;5021;51.506;11.320;2022-09-09T07:52:16;3.13;;;1.80;;
9960;SDS011;5021;51.506;11.320;2022-09-09T07:54:42;2.30;;;1.43;;
9960;SDS011;5021;51.506;11.320;2022-09-09T07:57:08;3.30;;;1.80;;
9960;SDS011;5021;51.506;11.320;2022-09-09T07:59:34;2.20;;;1.73;;
9960;SDS011;5021;51.506;11.320;2022-09-09T08:02:00;2.60;;;1.73;;
9960;SDS011;5021;51.506;11.320;2022-09-09T08:04:26;3.33;;;1.80;;
9960;SDS011;5021;51.506;11.320;2022-09-09T08:06:57;4.53;;;1.60;;
9960;SDS011;5021;51.506;11.320;2022-09-09T08:09:23;3.33;;;1.87;;
9960;SDS011;5021;51.506;11.320;2022-09-09T08:11:51;4.00;;;1.90;;
9960;SDS011;5021;51.506;11.320;2022-09-09T08:14:18;4.10;;;1.47;;
9960;SDS011;5021;51.506;11.320;2022-09-09T08:16:45;4.00;;;1.70;;
9960;SDS011;5021;51.506;11.320;2022-09-09T08:19:11;2.17;;;1.40;;
9960;SDS011;5021;51.506;11.320;2022-09-09T08:21:38;2.53;;;1.60;;
9960;SDS011;5021;51.506;11.320;2022-09-09T08:24:06;3.00;;;1.53;;
9960;SDS011;5021;51.506;11.320;2022-09-09T08:26:37;2.03;;;1.33;;
9960;SDS011;5021;51.506;11.320;2022-09-09T08:29:04;3.10;;;1.43;;
9960;SDS011;5021;51.506;11.320;2022-09-09T08:31:35;3.77;;;1.60;;
9960;SDS011;5021;51.506;11.320;2022-09-09T08:34:02;3.70;;;1.43;;
9960;SDS011;5021;51.506;11.320;2022-09-09T08:36:30;4.93;;;1.80;;
9960;SDS011;5021;51.506;11.320;2022-09-09T08:38:58;3.47;;;1.70;;
9960;SDS011;5021;51.506;11.320;2022-09-09T08:52:18;3.70;;;1.60;;
9960;SDS011;5021;51.506;11.320;2022-09-09T08:54:45;5.23;;;1.60;;
9960;SDS011;5021;51.506;11.320;2022-09-09T08:57:14;3.40;;;1.40;;
9960;SDS011;5021;51.506;11.320;2022-09-09T08:59:43;2.17;;;1.50;;
9960;SDS011;5021;51.506;11.320;2022-09-09T09:10:04;3.63;;;1.80;;
9960;SDS011;5021;51.506;11.320;2022-09-09T09:12:38;4.73;;;1.60;;
9960;SDS011;5021;51.506;11.320;2022-09-09T09:15:11;6.20;;;1.60;;
9960;SDS011;5021;51.506;11.320;2022-09-09T09:17:41;5.20;;;1.50;;
9960;SDS011;5021;51.506;11.320;2022-09-09T09:20:11;3.20;;;1.40;;
9960;SDS011;5021;51.506;11.320;2022-09-09T09:22:50;3.83;;;1.33;;
9960;SDS011;5021;51.506;11.320;2022-09-09T09:30:43;2.30;;;1.13;;
9960;SDS011;5021;51.506;11.320;2022-09-09T09:35:46;2.67;;;1.27;;
9960;SDS011;5021;51.506;11.320;2022-09-09T09:38:16;7.03;;;1.70;;
9960;SDS011;5021;51.506;11.320;2022-09-09T09:40:52;2.83;;;1.27;;
9960;SDS011;5021;51.506;11.320;2022-09-09T09:45:51;3.93;;;1.43;;
9960;SDS011;5021;51.506;11.320;2022-09-09T09:48:17;2.97;;;1.20;;
9960;SDS011;5021;51.506;11.320;2022-09-09T09:53:17;4.63;;;1.63;;
9960;SDS011;5021;51.506;11.320;2022-09-09T09:55:47;4.07;;;1.70;;
9960;SDS011;5021;51.506;11.320;2022-09-09T09:58:15;3.13;;;1.40;;
9960;SDS011;5021;51.506;11.320;2022-09-09T10:00:48;3.00;;;1.50;;
9960;SDS011;5021;51.506;11.320;2022-09-09T10:03:22;2.43;;;1.50;;
9960;SDS011;5021;51.506;11.320;2022-09-09T10:05:48;2.97;;;1.20;;
9960;SDS011;5021;51.506;11.320;2022-09-09T10:08:15;2.30;;;1.40;;
9960;SDS011;5021;51.506;11.320;2022-09-09T10:16:55;4.20;;;1.67;;
9960;SDS011;5021;51.506;11.320;2022-09-09T10:18:57;3.20;;;1.40;;
9960;SDS011;5021;51.506;11.320;2022-09-09T10:26:32;4.03;;;1.57;;
9960;SDS011;5021;51.506;11.320;2022-09-09T10:37:27;2.53;;;1.47;;
9960;SDS011;5021;51.506;11.320;2022-09-09T10:40:17;4.07;;;1.30;;
9960;SDS011;5021;51.506;11.320;2022-09-09T10:42:44;6.47;;;1.60;;
9960;SDS011;5021;51.506;11.320;2022-09-09T10:45:17;2.57;;;1.07;;
9960;SDS011;5021;51.506;11.320;2022-09-09T10:47:48;3.03;;;1.53;;
9960;SDS011;5021;51.506;11.320;2022-09-09T10:55:42;4.37;;;1.43;;
9960;SDS011;5021;51.506;11.320;2022-09-09T10:58:10;2.37;;;1.40;;
9960;SDS011;5021;51.506;11.320;2022-09-09T11:00:39;2.80;;;1.40;;
9960;SDS011;5021;51.506;11.320;2022-09-09T11:03:05;4.47;;;1.50;;
9960;SDS011;5021;51.506;11.320;2022-09-09T11:08:01;2.93;;;1.40;;
9960;SDS011;5021;51.506;11.320;2022-09-09T11:10:38;3.20;;;1.20;;
9960;SDS011;5021;51.506;11.320;2022-09-09T11:13:09;3.27;;;1.40;;
9960;SDS011;5021;51.506;11.320;2022-09-09T11:15:39;4.47;;;1.40;;
9960;SDS011;5021;51.506;11.320;2022-09-09T11:18:08;3.93;;;1.70;;
9960;SDS011;5021;51.506;11.320;2022-09-09T11:20:36;3.63;;;1.40;;
9960;SDS011;5021;51.506;11.320;2022-09-09T11:25:58;3.10;;;1.20;;
9960;SDS011;5021;51.506;11.320;2022-09-09T11:36:29;3.30;;;1.00;;
9960;SDS011;5021;51.506;11.320;2022-09-09T11:39:09;5.10;;;1.33;;
9960;SDS011;5021;51.506;11.320;2022-09-09T11:41:40;2.37;;;1.10;;
9960;SDS011;5021;51.506;11.320;2022-09-09T11:44:10;1.73;;;1.13;;
9960;SDS011;5021;51.506;11.320;2022-09-09T11:46:37;2.03;;;1.20;;
9960;SDS011;5021;51.506;11.320;2022-09-09T11:49:05;4.17;;;1.30;;
9960;SDS011;5021;51.506;11.320;2022-09-09T11:51:32;3.27;;;1.30;;
9960;SDS011;5021;51.506;11.320;2022-09-09T11:56:44;3.33;;;1.33;;
9960;SDS011;5021;51.506;11.320;2022-09-09T11:59:23;3.93;;;1.40;;
9960;SDS011;5021;51.506;11.320;2022-09-09T12:01:50;2.33;;;1.20;;
9960;SDS011;5021;51.506;11.320;2022-09-09T12:09:46;4.27;;;1.70;;
9960;SDS011;5021;51.506;11.320;2022-09-09T12:14:54;2.67;;;1.43;;
9960;SDS011;5021;51.506;11.320;2022-09-09T12:17:24;2.63;;;1.27;;
9960;SDS011;5021;51.506;11.320;2022-09-09T12:25:20;2.53;;;1.20;;
9960;SDS011;5021;51.506;11.320;2022-09-09T12:28:32;3.93;;;1.30;;
9960;SDS011;5021;51.506;11.320;2022-09-09T12:30:41;3.40;;;1.10;;
9960;SDS011;5021;51.506;11.320;2022-09-09T12:33:11;5.37;;;1.43;;
9960;SDS011;5021;51.506;11.320;2022-09-09T12:35:38;2.23;;;1.20;;
9960;SDS011;5021;51.506;11.320;2022-09-09T12:38:05;2.60;;;1.03;;
9960;SDS011;5021;51.506;11.320;2022-09-09T12:40:34;2.10;;;1.10;;
9960;SDS011;5021;51.506;11.320;2022-09-09T12:43:01;2.70;;;1.43;;
9960;SDS011;5021;51.506;11.320;2022-09-09T12:45:30;3.67;;;1.50;;
9960;SDS011;5021;51.506;11.320;2022-09-09T12:47:58;2.73;;;1.30;;
9960;SDS011;5021;51.506;11.320;2022-09-09T12:50:27;3.43;;;1.13;;
9960;SDS011;5021;51.506;11.320;2022-09-09T12:52:55;2.90;;;1.07;;
9960;SDS011;5021;51.506;11.320;2022-09-09T12:55:37;1.47;;;1.20;;
9960;SDS011;5021;51.506;11.320;2022-09-09T12:58:03;2.33;;;1.10;;
9960;SDS011;5021;51.506;11.320;2022-09-09T13:00:31;2.67;;;1.30;;
9960;SDS011;5021;51.506;11.320;2022-09-09T13:02:58;2.43;;;1.00;;
9960;SDS011;5021;51.506;11.320;2022-09-09T13:05:25;3.87;;;1.30;;
9960;SDS011;5021;51.506;11.320;2022-09-09T13:07:52;1.80;;;1.13;;
9960;SDS011;5021;51.506;11.320;2022-09-09T13:10:22;2.93;;;1.13;;
9960;SDS011;5021;51.506;11.320;2022-09-09T13:12:51;2.93;;;1.10;;
9960;SDS011;5021;51.506;11.320;2022-09-09T13:15:22;2.13;;;1.20;;
9960;SDS011;5021;51.506;11.320;2022-09-09T13:17:50;3.43;;;1.20;;
9960;SDS011;5021;51.506;11.320;2022-09-09T13:20:18;2.43;;;1.20;;
9960;SDS011;5021;51.506;11.320;2022-09-09T13:22:44;3.17;;;1.30;;
9960;SDS011;5021;51.506;11.320;2022-09-09T13:27:50;2.53;;;1.23;;
9960;SDS011;5021;51.506;11.320;2022-09-09T13:30:31;4.17;;;1.87;;
9960;SDS011;5021;51.506;11.320;2022-09-09T13:35:56;2.73;;;1.20;;
9960;SDS011;5021;51.506;11.320;2022-09-09T13:38:22;3.50;;;1.33;;
9960;SDS011;5021;51.506;11.320;2022-09-09T13:43:22;2.43;;;1.10;;
9960;SDS011;5021;51.506;11.320;2022-09-09T13:45:54;2.90;;;1.70;;
9960;SDS011;5021;51.506;11.320;2022-09-09T13:48:21;3.03;;;1.50;;
9960;SDS011;5021;51.506;11.320;2022-09-09T13:50:54;3.13;;;1.10;;
9960;SDS011;5021;51.506;11.320;2022-09-09T13:53:20;3.47;;;1.27;;
9960;SDS011;5021;51.506;11.320;2022-09-09T13:55:46;3.73;;;1.33;;
9960;SDS011;5021;51.506;11.320;2022-09-09T13:58:15;2.67;;;1.10;;
9960;SDS011;5021;51.506;11.320;2022-09-09T14:00:43;2.80;;;1.43;;
9960;SDS011;5021;51.506;11.320;2022-09-09T14:03:10;1.83;;;1.33;;
9960;SDS011;5021;51.506;11.320;2022-09-09T14:05:36;2.20;;;1.07;;
9960;SDS011;5021;51.506;11.320;2022-09-09T14:08:06;4.10;;;1.40;;
9960;SDS011;5021;51.506;11.320;2022-09-09T14:10:32;4.13;;;1.33;;
9960;SDS011;5021;51.506;11.320;2022-09-09T14:13:01;2.87;;;1.13;;
9960;SDS011;5021;51.506;11.320;2022-09-09T14:15:27;3.07;;;1.50;;
9960;SDS011;5021;51.506;11.320;2022-09-09T14:17:54;2.30;;;1.33;;
9960;SDS011;5021;51.506;11.320;2022-09-09T14:20:20;2.13;;;1.00;;
9960;SDS011;5021;51.506;11.320;2022-09-09T14:22:46;1.53;;;1.10;;
9960;SDS011;5021;51.506;11.320;2022-09-09T14:25:12;3.47;;;1.40;;
9960;SDS011;5021;51.506;11.320;2022-09-09T14:27:38;2.23;;;0.90;;
9960;SDS011;5021;51.506;11.320;2022-09-09T14:30:05;4.30;;;1.50;;
9960;SDS011;5021;51.506;11.320;2022-09-09T14:32:31;3.47;;;1.33;;
9960;SDS011;5021;51.506;11.320;2022-09-09T14:34:58;3.73;;;1.40;;
9960;SDS011;5021;51.506;11.320;2022-09-09T14:37:24;1.13;;;0.80;;
9960;SDS011;5021;51.506;11.320;2022-09-09T14:39:51;3.67;;;1.13;;
9960;SDS011;5021;51.506;11.320;2022-09-09T14:42:17;2.23;;;1.17;;
9960;SDS011;5021;51.506;11.320;2022-09-09T14:44:43;1.87;;;1.03;;
9960;SDS011;5021;51.506;11.320;2022-09-09T14:47:09;2.93;;;1.10;;
9960;SDS011;5021;51.506;11.320;2022-09-09T14:49:35;2.00;;;1.00;;
9960;SDS011;5021;51.506;11.320;2022-09-09T14:52:02;1.70;;;1.00;;
9960;SDS011;5021;51.506;11.320;2022-09-09T14:54:28;1.73;;;0.83;;
9960;SDS011;5021;51.506;11.320;2022-09-09T14:56:54;2.10;;;1.00;;
9960;SDS011;5021;51.506;11.320;2022-09-09T14:59:21;1.70;;;0.80;;
9960;SDS011;5021;51.506;11.320;2022-09-09T15:01:47;2.97;;;0.93;;
9960;SDS011;5021;51.506;11.320;2022-09-09T15:04:13;1.50;;;0.90;;
9960;SDS011;5021;51.506;11.320;2022-09-09T15:06:39;2.17;;;1.20;;
9960;SDS011;5021;51.506;11.320;2022-09-09T15:09:07;3.80;;;1.00;;
9960;SDS011;5021;51.506;11.320;2022-09-09T15:11:34;3.17;;;1.00;;
9960;SDS011;5021;51.506;11.320;2022-09-09T15:14:04;2.10;;;1.10;;
9960;SDS011;5021;51.506;11.320;2022-09-09T15:16:30;2.77;;;1.20;;
9960;SDS011;5021;51.506;11.320;2022-09-09T15:18:57;2.30;;;1.00;;
9960;SDS011;5021;51.506;11.320;2022-09-09T15:21:25;2.30;;;1.00;;
9960;SDS011;5021;51.506;11.320;2022-09-09T15:23:52;2.07;;;1.20;;
9960;SDS011;5021;51.506;11.320;2022-09-09T15:26:18;2.33;;;1.20;;
9960;SDS011;5021;51.506;11.320;2022-09-09T15:28:44;2.43;;;1.30;;
9960;SDS011;5021;51.506;11.320;2022-09-09T15:31:13;2.57;;;1.07;;
9960;SDS011;5021;51.506;11.320;2022-09-09T15:33:39;4.23;;;2.00;;
9960;SDS011;5021;51.506;11.320;2022-09-09T15:36:12;5.60;;;1.80;;
9960;SDS011;5021;51.506;11.320;2022-09-09T15:38:39;2.37;;;1.40;;
9960;SDS011;5021;51.506;11.320;2022-09-09T15:41:05;3.70;;;1.40;;
9960;SDS011;5021;51.506;11.320;2022-09-09T15:43:31;2.77;;;0.97;;
9960;SDS011;5021;51.506;11.320;2022-09-09T15:45:58;2.33;;;1.10;;
9960;SDS011;5021;51.506;11.320;2022-09-09T15:48:31;1.47;;;0.97;;
9960;SDS011;5021;51.506;11.320;2022-09-09T15:51:01;1.13;;;0.83;;
9960;SDS011;5021;51.506;11.320;2022-09-09T15:53:28;2.00;;;1.00;;
9960;SDS011;5021;51.506;11.320;2022-09-09T15:55:55;2.77;;;1.30;;
9960;SDS011;5021;51.506;11.320;2022-09-09T15:58:20;2.07;;;0.73;;
9960;SDS011;5021;51.506;11.320;2022-09-09T16:00:46;3.07;;;1.40;;
9960;SDS011;5021;51.506;11.320;2022-09-09T16:03:12;1.40;;;0.80;;
9960;SDS011;5021;51.506;11.320;2022-09-09T16:05:38;3.87;;;1.00;;
9960;SDS011;5021;51.506;11.320;2022-09-09T16:08:06;3.63;;;1.40;;
9960;SDS011;5021;51.506;11.320;2022-09-09T16:10:32;2.57;;;0.93;;
9960;SDS011;5021;51.506;11.320;2022-09-09T16:12:58;1.13;;;0.90;;
9960;SDS011;5021;51.506;11.320;2022-09-09T16:15:24;2.17;;;1.00;;
9960;SDS011;5021;51.506;11.320;2022-09-09T16:17:53;2.40;;;1.30;;
9960;SDS011;5021;51.506;11.320;2022-09-09T16:20:22;2.20;;;1.13;;
9960;SDS011;5021;51.506;11.320;2022-09-09T16:22:48;1.53;;;0.90;;
9960;SDS011;5021;51.506;11.320;2022-09-09T16:25:14;2.33;;;1.20;;
9960;SDS011;5021;51.506;11.320;2022-09-09T16:27:40;2.80;;;1.30;;
9960;SDS011;5021;51.506;11.320;2022-09-09T16:30:06;2.43;;;1.40;;
9960;SDS011;5021;51.506;11.320;2022-09-09T16:32:32;1.40;;;1.20;;
9960;SDS011;5021;51.506;11.320;2022-09-09T16:34:59;1.67;;;0.90;;
9960;SDS011;5021;51.506;11.320;2022-09-09T16:37:25;2.43;;;1.37;;
9960;SDS011;5021;51.506;11.320;2022-09-09T16:39:51;1.43;;;0.90;;
9960;SDS011;5021;51.506;11.320;2022-09-09T16:42:19;2.07;;;1.10;;
9960;SDS011;5021;51.506;11.320;2022-09-09T16:44:45;3.97;;;1.50;;
9960;SDS011;5021;51.506;11.320;2022-09-09T16:47:11;2.23;;;1.50;;
9960;SDS011;5021;51.506;11.320;2022-09-09T16:49:37;2.93;;;1.30;;
9960;SDS011;5021;51.506;11.320;2022-09-09T16:52:03;2.63;;;1.00;;
9960;SDS011;5021;51.506;11.320;2022-09-09T16:54:29;2.77;;;1.13;;
9960;SDS011;5021;51.506;11.320;2022-09-09T16:56:55;1.90;;;0.90;;
9960;SDS011;5021;51.506;11.320;2022-09-09T16:59:22;2.43;;;1.00;;
9960;SDS011;5021;51.506;11.320;2022-09-09T17:01:49;1.03;;;0.90;;
9960;SDS011;5021;51.506;11.320;2022-09-09T17:04:19;2.43;;;1.33;;
9960;SDS011;5021;51.506;11.320;2022-09-09T17:06:47;2.40;;;1.40;;
9960;SDS011;5021;51.506;11.320;2022-09-09T17:09:14;4.77;;;1.50;;
9960;SDS011;5021;51.506;11.320;2022-09-09T17:11:40;3.33;;;1.40;;